Andover, Kansas
Current Conditions -  °F | °C
As of 5:54 AM on Friday 24 Oct 2014 (Local Time) from KAAO Reporting Station
Haze Haze  
Wind Chill: 56°   Ceiling: Unl
Heat Index: 56°   Visibility: 5mi
Dew Point: 55°   Wind: 8mph
Humidity: 97%   Direction: 180°S
Pressure: 30.05"   Gusts: NA
Location:  37.71°N, 97.14°W
Report Text: KAAO 241054Z AUTO 18007KT 5SM BR CLR 13/13 A3005 RMK AO2 SLP170 T01330128 $
Loading
Personal Weather Stations






























Interactive Weather Map
Tropical Storm Tracking
New forecast layout! Learn more

10-Day Weather Forecast

Advertisements
Track Severe Weather on mobile